Flight Track Log - Related Links

Times and Time Zones

All times are in EDT time to prevent confusion due to time zone crossing. See the SKW6345 flight status page for this flight to view local times or setup timezone preferences in your user account.

Time Position Orientation Groundspeed Altitude Reporting Facility
EDT Latitude Longitude Course Direction KTS MPH feet Rate Location/Type
Tue 11:55:16 AM 37.6333 -122.4167 38° Northeast 160 184 2,200  Level Northern Cal TRACON
Tue 11:56:16 AM 37.6500 -122.4833 288° West 214 246 4,700 2,350 Climbing Northern Cal TRACON
Tue 11:57:00 AM 37.9055 -122.0278 38° Northeast  Level FlightAware Approximate
Tue 11:57:16 AM 37.6833 -122.5500 302° West 255 293 6,900  Level Northern Cal TRACON
Tue 11:58:00 AM 38.0095 -121.9239 38° Northeast  Level FlightAware Approximate
Tue 11:58:16 AM 37.7667 -122.5500 360° North 297 342 9,200  Level Northern Cal TRACON
Tue 11:59:00 AM 38.1134 -121.8199 38° Northeast  Level FlightAware Approximate
Tue 11:59:16 AM 37.8333 -122.4833 38° Northeast 320 368 11,400  Level Northern Cal TRACON
Tue 12:00:00 PM 38.2154 -121.7179 38° Northeast  Level FlightAware Approximate
Tue 12:00:16 PM 37.8833 -122.4000 53° Northeast 334 384 13,100  Level Northern Cal TRACON
Tue 12:01:22 PM 37.9531 -122.2936 50° Northeast 349 402 14,700 1,512 Climbing Oakland Center
Tue 12:02:23 PM 38.0189 -122.1953 50° Northeast 364 419 16,300 1,377 Climbing Oakland Center
Tue 12:03:24 PM 38.0861 -122.0939 50° Northeast 376 433 17,500 976 Climbing Oakland Center
Tue 12:04:26 PM 38.1561 -121.9869 50° Northeast 391 450 18,300 976 Climbing Oakland Center
Tue 12:05:27 PM 38.2292 -121.8764 50° Northeast 407 468 19,500 1,024 Climbing Oakland Center
Tue 12:06:29 PM 38.3019 -121.7661 50° Northeast 408 470 20,400 1,073 Climbing Oakland Center
Tue 12:07:30 PM 38.3911 -121.6286 50° Northeast 418 481 21,700 1,082 Climbing Oakland Center
Tue 12:08:31 PM 38.4733 -121.5253 45° Northeast 420 483 22,600 927 Climbing Oakland Center
Tue 12:09:33 PM 38.5617 -121.4189 43° Northeast 432 497 23,600 927 Climbing Oakland Center
Tue 12:10:34 PM 38.6500 -121.3119 43° Northeast 439 505 24,500 927 Climbing Oakland Center
Tue 12:11:36 PM 38.7481 -121.1969 42° Northeast 448 516 25,500 878 Climbing Oakland Center
Tue 12:12:37 PM 38.8394 -121.0858 43° Northeast 451 519 26,300 829 Climbing Oakland Center
Tue 12:13:39 PM 38.9306 -120.9742 44° Northeast 451 519 27,200 829 Climbing Oakland Center
Tue 12:14:40 PM 39.0222 -120.8625 43° Northeast 453 521 28,000 738 Climbing Oakland Center
Tue 12:15:41 PM 39.1144 -120.7500 43° Northeast 455 524 28,700 732 Climbing Oakland Center
Tue 12:16:43 PM 39.2056 -120.6381 44° Northeast 454 522 29,500 780 Climbing Oakland Center
Tue 12:17:44 PM 39.2972 -120.5261 43° Northeast 453 521 30,300 787 Climbing Oakland Center
Tue 12:18:45 PM 39.3861 -120.4156 44° Northeast 447 514 31,100 634 Climbing Oakland Center
Tue 12:19:47 PM 39.4758 -120.3042 44° Northeast 445 512 31,600 585 Climbing Oakland Center
Tue 12:20:48 PM 39.5847 -120.1686 44° Northeast 450 518 32,300 590 Climbing Oakland Center
Tue 12:21:49 PM 39.6950 -120.0842 30° Northeast 459 528 32,800 341 Climbing Oakland Center
Tue 12:22:51 PM 39.8022 -120.0039 30° Northeast 446 513 33,000 98 Climbing Oakland Center
Tue 12:23:52 PM 39.9153 -119.9228 29° Northeast 458 527 33,000  Level Oakland Center
Tue 12:24:54 PM 40.0317 -119.8375 29° Northeast 474 545 33,000  Level Oakland Center
Tue 12:25:55 PM 40.1503 -119.7511 29° Northeast 484 557 33,000  Level Oakland Center
Tue 12:26:56 PM 40.2711 -119.6597 30° Northeast 494 568 33,000  Level Oakland Center
Tue 12:27:58 PM 40.3914 -119.5719 29° Northeast 494 568 33,000  Level Oakland Center
Tue 12:28:59 PM 40.5125 -119.4808 30° Northeast 497 572 33,000  Level Oakland Center
Tue 12:30:00 PM 40.6339 -119.3892 30° Northeast 500 575 33,000  Level Oakland Center
Tue 12:31:02 PM 40.7550 -119.2994 29° Northeast 498 573 33,000  Level Oakland Center
Tue 12:32:03 PM 40.8908 -119.1969 30° Northeast 495 570 33,000  Level Oakland Center
Tue 12:33:05 PM 41.0042 -119.1117 30° Northeast 490 564 33,000  Level Oakland Center
Tue 12:34:06 PM 41.1364 -119.0108 30° Northeast 490 564 33,000  Level Oakland Center
Tue 12:35:07 PM 41.2492 -118.9250 30° Northeast 488 562 33,000  Level Oakland Center
Tue 12:36:09 PM 41.3594 -118.8386 30° Northeast 483 556 33,000  Level Oakland Center
Tue 12:37:10 PM 41.4900 -118.7397 30° Northeast 482 555 33,000  Level Oakland Center
Tue 12:38:11 PM 41.6008 -118.6531 30° Northeast 480 552 33,000  Level Oakland Center
Tue 12:39:38 PM 41.7681 -118.5225 30° Northeast 480 552 33,000  Level Salt Lake Center
Tue 12:40:40 PM 41.8783 -118.4358 30° Northeast 477 549 33,000  Level Salt Lake Center
Tue 12:41:42 PM 42.0081 -118.3347 30° Northeast 480 552 33,000  Level Salt Lake Center
Tue 12:42:44 PM 42.1183 -118.2478 30° Northeast 479 551 33,000  Level Salt Lake Center
Tue 12:43:46 PM 42.2467 -118.1447 31° Northeast 479 551 33,000  Level Salt Lake Center
Tue 12:44:48 PM 42.3489 -118.0242 41° Northeast 477 549 33,000  Level Salt Lake Center
Tue 12:45:50 PM 42.4239 -117.8856 54° Northeast 475 547 33,000  Level Salt Lake Center
Tue 12:46:52 PM 42.5131 -117.7250 53° Northeast 477 549 33,000  Level Salt Lake Center
Tue 12:47:54 PM 42.5897 -117.5875 53° Northeast 478 550 33,000  Level Salt Lake Center
Tue 12:48:56 PM 42.6781 -117.4253 53° Northeast 477 549 33,000  Level Salt Lake Center
Tue 12:49:58 PM 42.7539 -117.2886 53° Northeast 474 545 33,000  Level Salt Lake Center
Tue 12:51:00 PM 42.8406 -117.1272 54° Northeast 473 544 33,000  Level Salt Lake Center
Tue 12:52:02 PM 42.9156 -116.9894 53° Northeast 473 544 33,000  Level Salt Lake Center
Tue 12:53:04 PM 43.0031 -116.8294 53° Northeast 472 543 33,000  Level Salt Lake Center
Tue 12:54:06 PM 43.0781 -116.6911 53° Northeast 473 544 33,000  Level Salt Lake Center
Tue 12:55:08 PM 43.1647 -116.5286 54° Northeast 474 545 33,000  Level Salt Lake Center
Tue 12:56:09 PM 43.2386 -116.3894 54° Northeast 473 544 33,000  Level Salt Lake Center
Tue 12:57:11 PM 43.3128 -116.2508 54° Northeast 472 543 33,000  Level Salt Lake Center
Tue 12:58:13 PM 43.3981 -116.0869 54° Northeast 474 545 33,000  Level Salt Lake Center
Tue 12:59:15 PM 43.4711 -115.9478 54° Northeast 472 543 33,000  Level Salt Lake Center
Tue 01:00:17 PM 43.5569 -115.7842 54° Northeast 473 544 33,000  Level Salt Lake Center
Tue 01:01:19 PM 43.6292 -115.6414 55° Northeast 476 548 33,000  Level Salt Lake Center
Tue 01:02:21 PM 43.7136 -115.4775 54° Northeast 473 544 33,000  Level Salt Lake Center
Tue 01:03:22 PM 43.7864 -115.3367 54° Northeast 472 543 33,000  Level Salt Lake Center
Tue 01:04:24 PM 43.8703 -115.1717 55° Northeast 472 543 33,000  Level Salt Lake Center
Tue 01:05:26 PM 43.9431 -115.0300 54° Northeast 472 543 33,000  Level Salt Lake Center
Tue 01:06:28 PM 44.0269 -114.8647 55° Northeast 471 542 33,000  Level Salt Lake Center
Tue 01:07:30 PM 44.0989 -114.7231 55° Northeast 470 541 33,000  Level Salt Lake Center
Tue 01:08:31 PM 44.1817 -114.5569 55° Northeast 470 541 33,000  Level Salt Lake Center
Tue 01:09:33 PM 44.2531 -114.4142 55° Northeast 469 540 33,000  Level Salt Lake Center
Tue 01:10:35 PM 44.3231 -114.2728 55° Northeast 466 536 33,000  Level Salt Lake Center
Tue 01:11:36 PM 44.4053 -114.1067 55° Northeast 465 535 33,000  Level Salt Lake Center
Tue 01:12:38 PM 44.4728 -113.9628 57° Northeast 464 534 33,000  Level Salt Lake Center
Tue 01:13:40 PM 44.5467 -113.8122 55° Northeast 464 534 33,000  Level Salt Lake Center
Tue 01:14:42 PM 44.6292 -113.6458 55° Northeast 465 535 33,000  Level Salt Lake Center
Tue 01:15:43 PM 44.6975 -113.5031 56° Northeast 462 532 33,000  Level Salt Lake Center
Tue 01:16:45 PM 44.7756 -113.3364 57° Northeast 458 527 33,000  Level Salt Lake Center
Tue 01:17:47 PM 44.8444 -113.1939 56° Northeast 459 528 33,000  Level Salt Lake Center
Tue 01:18:48 PM 44.9231 -113.0286 56° Northeast 454 522 33,000  Level Salt Lake Center
Tue 01:19:50 PM 44.9908 -112.8858 56° Northeast 456 525 33,000  Level Salt Lake Center
Tue 01:20:52 PM 45.0592 -112.7428 56° Northeast 458 527 33,000 -1,065 Level Salt Lake Center
Tue 01:21:54 PM 45.1378 -112.5756 56° Northeast 458 527 30,800 -2,098 Descending Salt Lake Center
Tue 01:22:55 PM 45.2017 -112.4364 57° Northeast 444 511 28,700 -2,244 Descending Salt Lake Center
Tue 01:23:57 PM 45.2775 -112.2714 57° Northeast 445 512 26,200 -2,226 Descending Salt Lake Center
Tue 01:24:59 PM 45.3417 -112.1333 56° Northeast 438 504 24,100 -2,000 Descending Salt Lake Center
Tue 01:26:00 PM 45.4069 -111.9908 57° Northeast 430 495 22,100 -2,244 Descending Salt Lake Center
Tue 01:27:02 PM 45.4692 -111.8522 57° Northeast 419 482 19,500 -2,371 Descending Salt Lake Center
Tue 01:28:04 PM 45.5303 -111.7211 56° Northeast 402 463 17,200 -2,129 Descending Salt Lake Center
Tue 01:29:06 PM 45.5864 -111.5956 57° Northeast 382 440 15,100 -2,098 Descending Salt Lake Center
Tue 01:30:07 PM 45.6525 -111.4614 55° Northeast 351 404 12,900 -1,073 Descending Salt Lake Center
Tue 01:31:09 PM 45.7128 -111.3867 41° Northeast 298 343 12,900 -774 Level Salt Lake Center
Tue 01:32:11 PM 45.7753 -111.3572 18° North 253 291 11,300 -1,548 Descending Salt Lake Center

Login

Don't have an account? Register now (free) for customized features, flight alerts, and more!